Time;durP1;ratioP1;P1;durP2;ratioP2;P2;SDS_P1;SDS_P2;PMS_P1;PMS_P2;Temp;Humidity;BMP_temperature;BMP_pressure;BME280_temperature;BME280_humidity;BME280_pressure;Samples;Min_cycle;Max_cycle;Signal;HPM_P1;HPM_P2
2022/05/08 00:01:48;;;;;;;0.20;0.20;;;;;;;14.95;71.12;99916.44;6244291;23;20008;-83
2022/05/08 00:04:19;;;;;;;0.20;0.20;;;;;;;15.09;68.80;99916.44;6246929;23;20095;-83
2022/05/08 00:06:48;;;;;;;0.20;0.20;;;;;;;15.05;69.44;99915.63;6247127;23;20348;-83
2022/05/08 00:09:16;;;;;;;0.20;0.20;;;;;;;15.00;69.10;99907.63;6247126;23;20341;-79
2022/05/08 00:11:42;;;;;;;0.20;0.20;;;;;;;14.92;69.91;99901.22;6247654;22;20350;-83
2022/05/08 00:14:10;;;;;;;0.20;0.20;;;;;;;14.97;69.45;99904.81;6246732;23;20019;-83
2022/05/08 00:16:38;;;;;;;0.20;0.20;;;;;;;14.95;69.80;99913.63;6246702;23;20321;-80
2022/05/08 00:19:07;;;;;;;0.20;0.20;;;;;;;14.92;69.82;99908.84;6246662;23;20468;-83
2022/05/08 00:21:32;;;;;;;0.20;0.20;;;;;;;14.89;69.93;99910.41;6246083;23;20008;-81
2022/05/08 00:23:58;;;;;;;0.20;0.20;;;;;;;15.04;68.03;99902.84;6246311;23;20012;-83
2022/05/08 00:26:24;;;;;;;0.20;0.20;;;;;;;15.00;68.32;99901.22;6246192;23;20012;-80
2022/05/08 00:28:55;;;;;;;0.20;0.20;;;;;;;15.17;66.70;99901.22;6252656;23;20027;-78
2022/05/08 00:31:21;;;;;;;0.20;0.20;;;;;;;15.17;67.33;99904.00;6257554;23;20083;-79
2022/05/08 00:33:50;;;;;;;0.20;0.20;;;;;;;15.10;67.16;99906.84;6253400;23;20016;-80
2022/05/08 00:36:22;;;;;;;0.20;0.20;;;;;;;15.00;68.71;99902.03;6222051;23;20012;-78
2022/05/08 00:38:50;;;;;;;0.20;0.20;;;;;;;14.99;68.88;99908.03;6246575;23;20012;-82
2022/05/08 00:41:16;;;;;;;0.20;0.20;;;;;;;14.97;69.16;99904.81;6247976;22;20016;-81
2022/05/08 00:43:44;;;;;;;0.20;0.20;;;;;;;15.01;67.77;99900.81;6246070;23;20364;-83
2022/05/08 00:46:16;;;;;;;0.20;0.20;;;;;;;14.93;68.45;99902.03;6245590;23;20000;-83
2022/05/08 00:48:45;;;;;;;0.20;0.20;;;;;;;14.85;69.45;99906.00;6246667;23;20063;-81
2022/05/08 00:51:15;;;;;;;0.20;0.20;;;;;;;14.83;69.62;99897.22;6246013;23;20012;-83
2022/05/08 00:53:43;;;;;;;0.20;0.20;;;;;;;14.83;69.00;99892.41;6245947;23;20440;-82
2022/05/08 00:56:13;;;;;;;0.20;0.20;;;;;;;14.86;69.32;99893.59;6246356;23;20338;-83
2022/05/08 00:58:44;;;;;;;0.20;0.20;;;;;;;14.90;68.97;99895.22;6245947;23;20087;-83
2022/05/08 01:01:10;;;;;;;0.20;0.20;;;;;;;15.04;68.40;99897.22;6245883;23;20008;-81
2022/05/08 01:03:36;;;;;;;0.20;0.20;;;;;;;15.00;67.97;99898.41;6220804;23;20413;-78
2022/05/08 01:06:09;;;;;;;0.20;0.20;;;;;;;14.91;68.10;99884.81;6246052;23;20456;-77
2022/05/08 01:08:36;;;;;;;;;;;;;;;14.95;68.31;99899.63;6248011;22;20007;-81
2022/05/08 01:11:04;;;;;;;0.20;0.20;;;;;;;14.89;67.79;99904.03;6246181;23;19904;-78
2022/05/08 01:13:30;;;;;;;0.20;0.20;;;;;;;14.74;68.29;99891.19;6246920;23;20092;-81
2022/05/08 01:15:56;;;;;;;0.20;0.20;;;;;;;14.81;68.26;99902.44;6246008;23;20008;-84
2022/05/08 01:18:25;;;;;;;0.20;0.20;;;;;;;14.86;67.42;99902.00;6246014;23;20000;-78
2022/05/08 01:20:51;;;;;;;0.20;0.20;;;;;;;14.77;68.16;99904.41;6247057;23;20016;-78
2022/05/08 01:23:21;;;;;;;0.20;0.20;;;;;;;14.74;67.76;99905.19;6220937;23;20023;-81
2022/05/08 01:25:48;;;;;;;0.20;0.20;;;;;;;14.70;68.13;99904.38;6245735;23;20061;-78
2022/05/08 01:28:17;;;;;;;0.20;0.20;;;;;;;14.71;68.72;99900.41;6245763;23;20008;-80
2022/05/08 01:30:44;;;;;;;0.20;0.20;;;;;;;14.97;66.50;99900.03;6247075;23;20039;-79
2022/05/08 01:33:13;;;;;;;0.20;0.20;;;;;;;15.03;67.44;99898.44;6255827;22;20003;-79
2022/05/08 01:35:42;;;;;;;0.20;0.20;;;;;;;14.95;66.48;99899.63;6254523;22;20035;-80
2022/05/08 01:38:10;;;;;;;0.20;0.20;;;;;;;14.76;67.50;99883.22;6282620;22;20090;-82
2022/05/08 01:40:37;;;;;;;0.20;0.20;;;;;;;14.82;67.25;99890.81;6252785;22;20038;-80
2022/05/08 01:43:03;;;;;;;0.20;0.20;;;;;;;14.94;66.29;99892.41;6261019;22;20063;-78
2022/05/08 01:45:29;;;;;;;0.20;0.20;;;;;;;14.78;67.09;99889.22;6267969;22;20038;-79
2022/05/08 01:50:40;;;;;;;0.20;0.20;;;;;;;14.80;66.49;99896.00;6295191;22;20014;-79
2022/05/08 01:53:05;;;;;;;0.20;0.20;;;;;;;14.68;67.69;99902.00;6236646;22;20090;-79
2022/05/08 01:55:37;;;;;;;0.20;0.20;;;;;;;14.72;67.15;99893.59;6253523;22;20313;-81
2022/05/08 01:58:03;;;;;;;0.20;0.20;;;;;;;14.93;66.00;99902.03;6256345;22;20008;-78
2022/05/08 02:00:30;;;;;;;0.20;0.20;;;;;;;14.94;65.67;99896.03;6269495;22;20008;-79
2022/05/08 02:02:59;;;;;;;0.20;0.20;;;;;;;14.83;65.86;99900.00;6293281;22;20057;-80
2022/05/08 02:05:25;;;;;;;0.20;0.20;;;;;;;14.78;66.46;99889.22;6283612;22;20328;-79
2022/05/08 02:07:53;;;;;;;0.20;0.20;;;;;;;14.65;67.54;99889.59;6250641;22;20008;-82
2022/05/08 02:10:19;;;;;;;0.20;0.20;;;;;;;14.56;68.20;99882.78;6250544;22;20014;-81
2022/05/08 02:12:45;;;;;;;0.20;0.20;;;;;;;14.66;68.42;99884.78;6250630;22;20399;-80
2022/05/08 02:15:12;;;;;;;0.20;0.20;;;;;;;14.63;68.22;99893.97;6250295;22;20006;-80
2022/05/08 02:17:39;;;;;;;0.20;0.20;;;;;;;14.61;67.43;99874.78;6250305;22;20018;-84
2022/05/08 02:20:07;;;;;;;0.20;0.20;;;;;;;14.69;66.70;99875.59;6277894;22;20032;-83
2022/05/08 02:22:34;;;;;;;0.20;0.20;;;;;;;14.63;67.23;99883.56;6276924;22;20010;-84
2022/05/08 02:25:00;;;;;;;0.20;0.20;;;;;;;14.62;67.84;99876.38;6250961;22;20062;-85
2022/05/08 02:27:49;;;;;;;0.20;0.20;;;;;;;14.68;67.92;99874.78;6256995;22;20027;-78
2022/05/08 02:30:20;;;;;;;0.20;0.20;;;;;;;14.63;68.34;99875.19;6259195;22;20008;-80
2022/05/08 02:32:53;;;;;;;0.20;0.20;;;;;;;14.72;65.83;99874.81;6293018;22;20006;-78
2022/05/08 02:35:22;;;;;;;0.20;0.20;;;;;;;14.96;64.87;99873.19;6294154;22;20016;-78
2022/05/08 02:37:53;;;;;;;0.20;0.20;;;;;;;14.87;65.55;99858.81;6267573;22;20235;-78
2022/05/08 02:40:20;;;;;;;0.20;0.20;;;;;;;14.61;66.72;99863.59;6261435;22;20003;-79
2022/05/08 02:42:49;;;;;;;0.20;0.20;;;;;;;14.52;67.56;99871.56;6226489;22;20024;-80
2022/05/08 02:45:18;;;;;;;0.20;0.20;;;;;;;14.53;68.18;99861.97;6250823;22;20011;-80
2022/05/08 02:47:49;;;;;;;0.20;0.20;;;;;;;14.46;68.77;99858.34;6250897;22;20367;-78
2022/05/08 02:50:16;;;;;;;0.20;0.20;;;;;;;14.44;68.97;99869.94;6250400;22;20007;-84
2022/05/08 02:52:42;;;;;;;0.20;0.20;;;;;;;14.31;69.37;99865.88;6277119;22;20031;-80
2022/05/08 03:00:41;;;;;;;0.20;0.20;;;;;;;14.11;69.53;99871.84;6277150;22;20439;-84
2022/05/08 03:03:11;;;;;;;0.20;0.20;;;;;;;14.18;69.71;99870.25;6249799;22;20011;-82
2022/05/08 03:05:40;;;;;;;0.20;0.20;;;;;;;14.17;69.76;99875.06;6246096;22;20031;-81
2022/05/08 03:08:14;;;;;;;0.20;0.20;;;;;;;14.23;69.88;99876.28;6277089;22;20328;-80
2022/05/08 03:13:32;;;;;;;0.20;0.20;;;;;;;14.20;69.84;99865.84;6254121;22;20073;-85
2022/05/08 03:15:57;;;;;;;0.10;0.10;;;;;;;14.19;70.24;99863.47;6249804;22;20000;-81
2022/05/08 03:18:26;;;;;;;0.20;0.20;;;;;;;14.21;70.19;99869.44;6249755;22;20037;-82
2022/05/08 03:20:51;;;;;;;0.20;0.20;;;;;;;14.49;69.08;99872.38;6249688;22;20086;-80
2022/05/08 03:23:17;;;;;;;0.20;0.20;;;;;;;14.33;69.10;99872.72;6250076;22;20035;-85
2022/05/08 03:25:43;;;;;;;0.20;0.20;;;;;;;14.31;69.22;99871.47;6249913;22;20007;-84
2022/05/08 03:28:08;;;;;;;0.10;0.10;;;;;;;14.34;68.96;99867.91;6250262;22;20007;-83
2022/05/08 03:30:34;;;;;;;0.10;0.10;;;;;;;14.31;69.18;99871.47;6249831;22;20012;-80
2022/05/08 03:32:59;;;;;;;0.20;0.20;;;;;;;14.29;69.49;99873.88;6249978;22;20003;-81
2022/05/08 03:35:28;;;;;;;0.20;0.20;;;;;;;14.30;69.44;99872.69;6250745;22;20018;-83
2022/05/08 03:37:54;;;;;;;0.20;0.20;;;;;;;14.31;69.26;99874.28;6251848;22;20011;-81
2022/05/08 03:40:19;;;;;;;0.20;0.20;;;;;;;14.31;69.15;99871.47;6251856;22;20011;-84
2022/05/08 03:42:45;;;;;;;0.20;0.20;;;;;;;14.36;69.80;99882.28;6252048;22;20133;-82
2022/05/08 03:45:10;;;;;;;0.20;0.20;;;;;;;14.51;68.76;99886.75;6251900;22;20404;-81
2022/05/08 03:47:39;;;;;;;0.20;0.20;;;;;;;14.48;68.13;99890.34;6252116;22;20019;-82
2022/05/08 03:50:06;;;;;;;0.20;0.20;;;;;;;14.44;68.45;99891.53;6251781;22;20010;-85
2022/05/08 03:52:32;;;;;;;0.20;0.20;;;;;;;14.53;68.22;99889.94;6251699;22;20004;-79
2022/05/08 03:54:59;;;;;;;0.20;0.20;;;;;;;14.52;68.66;99888.34;6251733;22;20050;-79
2022/05/08 03:57:25;;;;;;;0.20;0.20;;;;;;;14.65;67.63;99884.00;6252095;22;20087;-85
2022/05/08 03:59:56;;;;;;;0.20;0.20;;;;;;;14.55;68.07;99881.97;6252322;22;20364;-79
2022/05/08 04:02:22;;;;;;;0.20;0.20;;;;;;;14.49;67.97;99886.38;6252014;22;20448;-84
2022/05/08 04:04:50;;;;;;;0.20;0.20;;;;;;;14.50;67.96;99890.75;6251662;22;20011;-81
2022/05/08 04:07:19;;;;;;;0.20;0.20;;;;;;;14.43;67.90;99890.69;6252122;22;20011;-81
2022/05/08 04:09:44;;;;;;;0.20;0.20;;;;;;;14.36;67.79;99885.88;6251736;22;20007;-86
2022/05/08 04:12:13;;;;;;;0.20;0.20;;;;;;;14.37;67.66;99886.69;6251983;22;20057;-86
2022/05/08 04:14:41;;;;;;;0.20;0.20;;;;;;;14.48;68.50;99886.75;6252269;22;20012;-79
2022/05/08 04:17:07;;;;;;;0.20;0.20;;;;;;;14.53;67.91;99892.75;6252253;22;20015;-80
2022/05/08 04:19:33;;;;;;;0.20;0.20;;;;;;;14.49;68.07;99889.16;6252712;22;20359;-79
2022/05/08 04:24:43;;;;;;;0.20;0.20;;;;;;;14.49;68.04;99896.75;6279116;22;20014;-76
2022/05/08 04:27:10;;;;;;;0.20;0.20;;;;;;;14.43;68.39;99899.09;6251810;22;20004;-85
2022/05/08 04:29:39;;;;;;;0.20;0.20;;;;;;;14.46;68.83;99903.91;6251909;22;20007;-82
2022/05/08 04:32:04;;;;;;;0.20;0.20;;;;;;;14.58;69.35;99917.56;6226517;22;20113;-85
2022/05/08 04:34:30;;;;;;;0.20;0.20;;;;;;;14.49;69.32;99889.16;6250899;22;20091;-83
2022/05/08 04:37:01;;;;;;;0.20;0.20;;;;;;;14.81;68.67;99914.44;6278537;22;20004;-85
2022/05/08 04:39:29;;;;;;;0.20;0.20;;;;;;;14.83;67.70;99914.03;6251465;22;20003;-83
2022/05/08 04:41:58;;;;;;;0.20;0.20;;;;;;;14.89;66.66;99934.81;6251241;22;20003;-84
2022/05/08 04:44:28;;;;;;;0.20;0.20;;;;;;;14.85;67.38;99920.00;6251468;22;20007;-83
2022/05/08 04:46:56;;;;;;;0.20;0.20;;;;;;;14.95;67.25;99922.03;6226618;22;20011;-84
2022/05/08 04:49:29;;;;;;;0.20;0.20;;;;;;;14.96;65.44;99929.22;6251736;22;20035;-84
2022/05/08 04:51:54;;;;;;;0.20;0.20;;;;;;;15.04;65.27;99930.84;6251325;22;20011;-85
2022/05/08 04:54:20;;;;;;;0.20;0.20;;;;;;;15.24;65.63;99939.66;6251450;22;20003;-83
2022/05/08 04:56:46;;;;;;;0.20;0.20;;;;;;;15.24;66.22;99927.66;6251255;22;20014;-84
2022/05/08 04:59:17;;;;;;;0.20;0.20;;;;;;;15.28;65.05;99922.84;6251235;22;20011;-83
2022/05/08 05:01:43;;;;;;;0.20;0.20;;;;;;;15.37;65.35;99937.25;6251174;22;20004;-83
2022/05/08 05:04:09;;;;;;;0.20;0.20;;;;;;;15.39;64.24;99929.22;6278362;22;20050;-82
2022/05/08 05:06:34;;;;;;;0.20;0.20;;;;;;;15.56;64.26;99930.44;6251147;22;20015;-80
2022/05/08 05:09:02;;;;;;;0.20;0.20;;;;;;;15.62;64.76;99920.41;6250955;22;20008;-79
2022/05/08 05:11:28;;;;;;;0.20;0.20;;;;;;;15.74;64.57;99928.41;6250879;22;20045;-81
2022/05/08 05:13:54;;;;;;;0.20;0.20;;;;;;;15.87;63.71;99942.81;6250681;22;20015;-80
2022/05/08 05:16:22;;;;;;;0.20;0.20;;;;;;;15.90;63.46;99930.78;6250424;22;20087;-81
2022/05/08 05:18:48;;;;;;;0.20;0.20;;;;;;;15.92;63.52;99923.56;6277378;22;20004;-81
2022/05/08 05:21:16;;;;;;;0.20;0.20;;;;;;;15.87;63.58;99909.13;6251490;22;20011;-85
2022/05/08 05:23:42;;;;;;;0.20;0.20;;;;;;;15.93;64.15;99925.19;6251045;22;20031;-81
2022/05/08 05:26:10;;;;;;;0.20;0.20;;;;;;;16.00;63.82;99926.34;6251315;22;20003;-84
2022/05/08 05:28:36;;;;;;;0.20;0.20;;;;;;;15.97;63.70;99899.88;6251660;22;20111;-84
2022/05/08 05:31:02;;;;;;;0.20;0.20;;;;;;;16.17;63.92;99923.47;6250749;22;20420;-83
2022/05/08 05:33:30;;;;;;;0.20;0.20;;;;;;;16.21;62.97;99923.47;6245525;23;20052;-84
2022/05/08 05:36:02;;;;;;;0.20;0.20;;;;;;;16.32;62.36;99920.63;6246157;23;20012;-84
2022/05/08 05:38:31;;;;;;;0.20;0.20;;;;;;;16.41;62.58;99921.78;6245411;23;20472;-82
2022/05/08 05:41:00;;;;;;;0.20;0.20;;;;;;;16.56;61.61;99922.47;6245795;23;20301;-79
2022/05/08 05:43:25;;;;;;;0.20;0.20;;;;;;;16.80;61.27;99928.41;6245410;23;20011;-81
2022/05/08 05:47:49;;;;;;;0.20;0.20;;;;;;;16.99;60.20;99930.66;6245418;23;20047;-81
2022/05/08 05:48:37;;;;;;;0.20;0.20;;;;;;;17.07;59.86;99928.59;6246604;23;20015;-81
2022/05/08 05:51:05;;;;;;;0.20;0.20;;;;;;;17.22;59.49;99942.16;6245590;23;20008;-79
2022/05/08 05:53:35;;;;;;;0.10;0.10;;;;;;;17.43;59.45;99935.53;6247151;22;20033;-79
2022/05/08 05:56:04;;;;;;;0.20;0.20;;;;;;;17.57;58.81;99951.47;6241431;23;20012;-80
2022/05/08 05:58:32;;;;;;;0.20;0.20;;;;;;;17.88;58.83;99937.53;6245381;23;20102;-80
2022/05/08 06:01:00;;;;;;;0.20;0.20;;;;;;;18.40;55.84;99945.78;6244532;23;20011;-80
2022/05/08 06:03:32;;;;;;;0.20;0.20;;;;;;;20.03;51.31;99935.97;6245187;23;20007;-80
2022/05/08 06:05:57;;;;;;;0.20;0.20;;;;;;;21.28;48.82;99941.69;6245313;23;20000;-81
2022/05/08 06:08:23;;;;;;;0.10;0.10;;;;;;;22.46;45.62;99948.66;6245274;23;20083;-80
2022/05/08 06:10:51;;;;;;;0.20;0.20;;;;;;;23.26;42.72;99953.50;6245840;23;20011;-81
2022/05/08 06:13:21;;;;;;;0.20;0.20;;;;;;;24.03;40.08;99952.09;6246840;22;20421;-80
2022/05/08 06:15:47;;;;;;;0.20;0.20;;;;;;;24.81;38.55;99951.22;6245855;23;20004;-82
2022/05/08 06:18:15;;;;;;;0.17;0.17;;;;;;;25.04;36.74;99955.59;6245142;23;20008;-81
2022/05/08 06:20:46;;;;;;;0.20;0.20;;;;;;;25.24;36.48;99949.50;6245046;23;20012;-81
2022/05/08 06:23:12;;;;;;;0.10;0.10;;;;;;;25.36;36.18;99962.06;6244944;23;20008;-81
2022/05/08 06:25:41;;;;;;;0.10;0.10;;;;;;;25.60;34.89;99959.44;6245021;23;20096;-81
2022/05/08 06:28:09;;;;;;;0.10;0.10;;;;;;;25.85;34.79;99964.09;6245631;23;20376;-81
2022/05/08 06:30:42;;;;;;;0.10;0.10;;;;;;;26.09;33.71;99967.88;5111059;27;20388;-81
2022/05/08 06:33:10;;;;;;;0.10;0.10;;;;;;;26.33;33.21;99959.50;5127190;28;20386;-82
2022/05/08 06:35:40;;;;;;;0.10;0.10;;;;;;;25.96;34.15;99963.63;5127745;28;20036;-81
2022/05/08 06:38:06;;;;;;;0.10;0.10;;;;;;;26.11;33.10;99965.38;5112127;28;20103;-82
2022/05/08 06:40:35;;;;;;;0.20;0.20;;;;;;;26.09;33.24;99958.56;5127271;28;20040;-81
2022/05/08 06:43:00;;;;;;;0.10;0.10;;;;;;;26.10;33.73;99963.81;5127550;28;20028;-81
2022/05/08 06:45:26;;;;;;;0.10;0.10;;;;;;;25.40;34.34;99971.25;5127162;28;20485;-81
2022/05/08 06:47:54;;;;;;;0.10;0.10;;;;;;;26.07;32.83;99969.66;5110064;28;20030;-81
2022/05/08 06:50:20;;;;;;;0.10;0.10;;;;;;;25.88;32.11;99968.84;5126820;28;20065;-80
2022/05/08 06:52:51;;;;;;;0.20;0.20;;;;;;;26.35;32.38;99976.13;5092786;28;20039;-80
2022/05/08 06:55:20;;;;;;;0.10;0.10;;;;;;;26.10;33.12;99975.19;5126827;28;20027;-80
2022/05/08 06:57:46;;;;;;;0.20;0.20;;;;;;;24.89;33.56;99979.41;5126566;28;20107;-80
2022/05/08 07:02:56;;;;;;;0.10;0.10;;;;;;;24.97;34.07;99983.53;5110882;28;20031;-79
2022/05/08 07:05:22;;;;;;;0.10;0.10;;;;;;;25.14;33.82;99969.88;5126681;28;20028;-80
2022/05/08 07:07:48;;;;;;;0.10;0.10;;;;;;;24.30;36.18;99987.69;5125970;28;20020;-79
2022/05/08 07:10:16;;;;;;;0.10;0.10;;;;;;;24.04;35.82;99992.69;5126139;28;20070;-80
2022/05/08 07:12:42;;;;;;;0.10;0.10;;;;;;;23.48;36.65;99993.31;5092457;28;20051;-80
2022/05/08 07:15:08;;;;;;;0.20;0.20;;;;;;;23.85;35.57;99982.38;5126199;28;20047;-83
2022/05/08 07:17:34;;;;;;;0.10;0.10;;;;;;;23.99;34.97;99993.25;5126683;28;20040;-82
2022/05/08 07:20:01;;;;;;;0.10;0.10;;;;;;;24.51;33.45;99971.91;5126071;28;20093;-83
2022/05/08 07:22:30;;;;;;;0.10;0.10;;;;;;;24.33;34.14;100000.16;5110076;28;20470;-84
2022/05/08 07:24:57;;;;;;;0.10;0.10;;;;;;;24.45;34.47;99994.47;5109578;28;20081;-83
2022/05/08 07:27:24;;;;;;;0.10;0.10;;;;;;;25.14;33.46;99989.81;5125903;28;20103;-81
2022/05/08 07:29:53;;;;;;;0.10;0.10;;;;;;;25.76;33.65;100001.13;5110585;28;20482;-79
2022/05/08 07:32:19;;;;;;;0.10;0.10;;;;;;;26.08;31.14;99994.81;5110308;28;20030;-84
2022/05/08 07:37:28;;;;;;;0.10;0.10;;;;;;;23.39;34.95;99994.03;5109925;28;20043;-82
2022/05/08 07:39:54;;;;;;;0.10;0.10;;;;;;;22.91;36.72;99995.16;5125088;28;20386;-82
2022/05/08 07:42:19;;;;;;;0.10;0.10;;;;;;;22.71;37.70;99998.16;5095033;28;20027;-81
2022/05/08 07:44:47;;;;;;;0.20;0.20;;;;;;;22.43;38.13;100003.41;5096044;28;20395;-84
2022/05/08 07:47:24;;;;;;;0.20;0.20;;;;;;;22.59;37.90;100008.22;5111829;28;20023;-78
2022/05/08 07:49:50;;;;;;;0.10;0.10;;;;;;;22.24;38.29;100010.03;5094824;28;20555;-80
2022/05/08 07:52:15;;;;;;;0.20;0.20;;;;;;;22.90;37.60;100005.69;5111596;28;20051;-78
2022/05/08 07:54:45;;;;;;;0.10;0.10;;;;;;;23.19;36.46;100002.78;5095557;28;20024;-74
2022/05/08 07:57:10;;;;;;;0.20;0.20;;;;;;;24.08;34.82;100013.25;5094736;28;20486;-76
2022/05/08 07:59:36;;;;;;;0.10;0.10;;;;;;;24.90;33.92;100021.63;5111296;28;20043;-72
2022/05/08 08:02:02;;;;;;;0.10;0.10;;;;;;;24.79;34.52;100009.84;5111440;28;20024;-86
2022/05/08 08:04:28;;;;;;;0.15;0.15;;;;;;;24.55;34.51;100018.88;5095775;28;20028;-79
2022/05/08 08:06:54;;;;;;;0.10;0.10;;;;;;;24.62;34.96;100022.69;5111489;28;20028;-84
2022/05/08 08:09:20;;;;;;;0.10;0.10;;;;;;;23.98;35.51;100015.19;5111451;28;20020;-86
2022/05/08 08:11:49;;;;;;;0.20;0.20;;;;;;;23.74;34.19;100031.03;5111227;28;20364;-80
2022/05/08 08:14:15;;;;;;;0.10;0.10;;;;;;;24.74;33.68;100030.38;5111408;28;20032;-76
2022/05/08 08:16:41;;;;;;;0.10;0.10;;;;;;;24.63;33.91;100027.13;5111133;28;20081;-78
2022/05/08 08:19:07;;;;;;;0.10;0.10;;;;;;;25.50;32.97;100021.28;5093979;28;20043;-83
2022/05/08 08:21:33;;;;;;;0.10;0.10;;;;;;;25.56;33.01;100021.44;5095817;28;20016;-80
2022/05/08 08:24:17;;;;;;;0.10;0.10;;;;;;;24.56;35.09;100016.81;5111458;28;20059;-79
2022/05/08 08:26:42;;;;;;;0.10;0.10;;;;;;;24.00;35.39;100040.31;5111279;28;20027;-79
2022/05/08 08:29:11;;;;;;;0.20;0.20;;;;;;;24.21;35.26;100033.09;5093561;28;20044;-79
2022/05/08 08:31:37;;;;;;;0.10;0.10;;;;;;;24.95;34.55;100031.59;5093904;28;20020;-81
2022/05/08 08:34:07;;;;;;;0.10;0.10;;;;;;;24.32;35.38;100039.19;5111327;28;20115;-75
2022/05/08 08:36:36;;;;;;;0.10;0.10;;;;;;;24.95;33.75;100034.44;5095604;28;20099;-79
2022/05/08 08:39:02;;;;;;;0.10;0.10;;;;;;;26.54;32.68;100031.94;5093561;28;20025;-76
2022/05/08 08:41:34;;;;;;;0.13;0.13;;;;;;;27.10;30.64;100027.72;5110535;28;20069;-83
2022/05/08 08:49:42;;;;;;;0.10;0.10;;;;;;;24.34;36.49;100048.03;5082770;28;20058;-84
2022/05/08 08:52:11;;;;;;;0.13;0.13;;;;;;;24.37;35.31;100040.66;5109247;28;20394;-80
2022/05/08 08:54:37;;;;;;;0.20;0.20;;;;;;;23.49;37.45;100046.03;5095867;28;20381;-88
2022/05/08 08:57:03;;;;;;;0.20;0.20;;;;;;;22.95;38.41;100047.69;5110829;28;20028;-86
2022/05/08 08:59:29;;;;;;;0.10;0.10;;;;;;;22.88;38.65;100055.63;5110515;28;20035;-89
2022/05/08 09:01:55;;;;;;;0.20;0.20;;;;;;;23.15;38.63;100052.38;5111386;28;20355;-88
2022/05/08 09:04:21;;;;;;;0.17;0.17;;;;;;;22.75;39.02;100038.56;5111019;28;20031;-88
2022/05/08 09:06:47;;;;;;;0.20;0.20;;;;;;;22.56;39.87;100048.00;5111122;28;20050;-84
2022/05/08 09:09:31;;;;;;;0.20;0.20;;;;;;;22.62;39.88;100037.72;5092986;28;20024;-82
2022/05/08 09:11:57;;;;;;;0.20;0.20;;;;;;;23.09;38.52;100051.34;5094691;28;20030;-80
2022/05/08 09:14:30;;;;;;;0.20;0.20;;;;;;;23.95;36.03;100055.88;5110435;28;20028;-78
2022/05/08 09:16:56;;;;;;;0.20;0.20;;;;;;;24.07;34.81;100054.25;5110375;28;20028;-80
2022/05/08 09:19:37;;;;;;;0.20;0.20;;;;;;;23.02;37.33;100040.22;5111144;28;20047;-82
2022/05/08 09:22:08;;;;;;;0.20;0.20;;;;;;;23.34;37.61;100051.38;5110319;28;20111;-82
2022/05/08 09:24:37;;;;;;;0.10;0.10;;;;;;;22.85;38.08;100048.78;5094986;28;20078;-74
2022/05/08 09:27:12;;;;;;;0.10;0.10;;;;;;;22.98;38.44;100052.47;5110215;28;20028;-79
2022/05/08 09:29:40;;;;;;;0.20;0.20;;;;;;;23.21;38.75;100047.72;5110302;28;20064;-87
2022/05/08 09:32:06;;;;;;;0.10;0.10;;;;;;;23.35;38.30;100055.81;5092376;28;20055;-78
2022/05/08 09:34:57;;;;;;;0.20;0.20;;;;;;;23.12;38.88;100044.78;5092686;28;20062;-85
2022/05/08 09:37:24;;;;;;;0.20;0.20;;;;;;;22.74;38.95;100059.63;5109733;28;20047;-75
2022/05/08 09:39:51;;;;;;;0.20;0.20;;;;;;;21.94;40.65;100063.00;5109867;28;20054;-86
2022/05/08 09:42:36;;;;;;;0.20;0.20;;;;;;;21.82;41.51;100037.41;5109703;28;20016;-79
2022/05/08 09:45:09;;;;;;;0.20;0.20;;;;;;;22.18;41.44;100048.66;5093917;28;20040;-85
2022/05/08 09:47:49;;;;;;;0.15;0.15;;;;;;;22.51;39.28;100051.41;5110027;28;20028;-78
2022/05/08 09:50:20;;;;;;;0.20;0.20;;;;;;;23.23;38.55;100046.03;5109847;28;20028;-81
2022/05/08 09:52:46;;;;;;;0.20;0.20;;;;;;;23.43;37.34;100048.63;5094123;28;20039;-84
2022/05/08 09:55:13;;;;;;;0.20;0.20;;;;;;;23.88;36.51;100047.63;5092592;28;20078;-80
2022/05/08 09:57:39;;;;;;;0.20;0.20;;;;;;;24.70;34.97;100052.44;5093783;28;20031;-87
2022/05/08 10:00:09;;;;;;;0.10;0.10;;;;;;;24.13;34.85;100065.84;5093468;28;20028;-80
2022/05/08 10:02:37;;;;;;;0.20;0.20;;;;;;;23.84;35.59;100055.44;5092158;28;20020;-87
2022/05/08 10:05:03;;;;;;;0.20;0.20;;;;;;;23.52;35.46;100045.13;5109049;28;20039;-83
2022/05/08 10:07:29;;;;;;;0.20;0.20;;;;;;;23.62;35.41;100054.56;5093982;28;20422;-71
2022/05/08 10:15:29;;;;;;;0.20;0.20;;;;;;;23.56;36.56;100033.66;5093550;28;20043;-76
2022/05/08 10:18:27;;;;;;;0.15;0.15;;;;;;;22.99;38.33;100025.69;5109245;28;20024;-73
2022/05/08 10:21:12;;;;;;;0.10;0.10;;;;;;;23.20;37.86;100024.22;5109302;28;20028;-81
2022/05/08 10:23:47;;;;;;;0.20;0.20;;;;;;;23.24;36.61;100021.28;5109021;28;20111;-73
2022/05/08 10:26:23;;;;;;;0.10;0.10;;;;;;;23.22;36.21;100009.56;5108986;28;20078;-76
2022/05/08 10:29:03;;;;;;;0.10;0.10;;;;;;;22.42;37.74;99976.28;5092693;28;20048;-77
2022/05/08 10:31:48;;;;;;;0.10;0.10;;;;;;;22.78;38.49;100011.31;5108968;28;20024;-73
2022/05/08 10:34:18;;;;;;;0.20;0.20;;;;;;;23.17;38.10;100015.81;5108705;28;20032;-74
2022/05/08 10:37:11;;;;;;;0.15;0.15;;;;;;;23.52;36.42;100022.41;5108612;28;20043;-72
2022/05/08 10:39:44;;;;;;;0.20;0.20;;;;;;;22.92;37.84;100008.88;5108790;28;20032;-77
2022/05/08 10:42:27;;;;;;;0.20;0.20;;;;;;;22.95;38.27;100012.84;5109233;28;20438;-72
2022/05/08 10:44:56;;;;;;;0.20;0.20;;;;;;;22.23;38.65;100002.78;5109126;28;20182;-73
2022/05/08 10:47:36;;;;;;;0.20;0.20;;;;;;;21.86;39.79;99989.97;5091735;28;20028;-85
2022/05/08 10:50:07;;;;;;;0.20;0.20;;;;;;;22.22;37.81;100007.66;5108765;28;20466;-74
2022/05/08 10:52:33;;;;;;;0.20;0.20;;;;;;;22.88;37.60;99998.91;5091961;28;20035;-72
2022/05/08 10:55:03;;;;;;;0.20;0.20;;;;;;;23.79;35.99;100007.72;5091587;28;20040;-73
2022/05/08 10:57:30;;;;;;;0.13;0.13;;;;;;;23.66;35.39;100013.44;5108414;28;20024;-74
2022/05/08 10:59:56;;;;;;;0.20;0.20;;;;;;;23.52;35.67;100009.00;5092731;28;20036;-74
2022/05/08 11:02:43;;;;;;;0.10;0.10;;;;;;;23.74;35.39;99997.75;5109272;28;20039;-73
2022/05/08 11:05:23;;;;;;;0.10;0.10;;;;;;;24.13;35.58;99998.44;5108859;28;20024;-75
2022/05/08 11:07:56;;;;;;;0.10;0.10;;;;;;;23.86;36.22;99995.31;5108910;28;20024;-74
2022/05/08 11:10:29;;;;;;;0.17;0.17;;;;;;;24.85;34.39;99995.81;5108919;28;20435;-74
2022/05/08 11:13:27;;;;;;;0.10;0.10;;;;;;;24.94;33.98;99993.81;5091821;28;20033;-74
2022/05/08 11:15:53;;;;;;;0.10;0.10;;;;;;;24.62;34.72;100008.47;5084016;28;20043;-74
2022/05/08 11:18:18;;;;;;;0.10;0.10;;;;;;;24.86;33.39;100001.03;5112465;28;20028;-75
2022/05/08 11:20:49;;;;;;;0.20;0.20;;;;;;;24.26;34.94;99998.38;5112380;28;20038;-73
2022/05/08 11:23:16;;;;;;;0.10;0.10;;;;;;;23.48;36.47;99999.78;5112191;28;20020;-74
2022/05/08 11:25:45;;;;;;;0.10;0.10;;;;;;;23.32;37.32;100002.75;5095212;28;20046;-75
2022/05/08 11:28:18;;;;;;;0.10;0.10;;;;;;;22.36;40.18;100000.78;5078456;28;20437;-73
2022/05/08 11:30:46;;;;;;;0.10;0.10;;;;;;;22.99;39.19;99990.84;5112259;28;20040;-73
2022/05/08 11:36:09;;;;;;;0.10;0.10;;;;;;;23.62;37.30;100000.59;5096453;28;20082;-73
2022/05/08 11:38:58;;;;;;;0.13;0.13;;;;;;;23.88;36.18;99993.63;5096205;28;20028;-74
2022/05/08 11:41:32;;;;;;;0.10;0.10;;;;;;;24.17;36.40;99999.09;5095108;28;20040;-73
2022/05/08 11:44:02;;;;;;;0.20;0.20;;;;;;;24.25;36.78;99993.97;5111799;28;20028;-74
2022/05/08 11:46:38;;;;;;;0.20;0.20;;;;;;;24.88;36.16;99987.16;5096467;28;20040;-74
2022/05/08 11:49:19;;;;;;;0.10;0.10;;;;;;;25.04;35.66;99983.28;5095756;28;20028;-74
2022/05/08 11:51:47;;;;;;;0.10;0.10;;;;;;;25.24;35.62;99988.59;5111706;28;20039;-74
2022/05/08 11:54:30;;;;;;;0.10;0.10;;;;;;;25.42;35.36;99987.88;5095711;28;20379;-73
2022/05/08 11:57:14;;;;;;;0.10;0.10;;;;;;;24.98;36.15;99987.97;5094804;28;20020;-74
2022/05/08 11:59:43;;;;;;;0.10;0.10;;;;;;;24.65;35.76;99985.56;5111823;28;20382;-74
2022/05/08 12:02:10;;;;;;;0.10;0.10;;;;;;;24.33;36.67;99991.63;5111523;28;20355;-73
2022/05/08 12:04:35;;;;;;;0.10;0.10;;;;;;;23.84;36.89;99995.78;5095786;28;20476;-74
2022/05/08 12:07:14;;;;;;;0.10;0.10;;;;;;;23.45;38.07;99989.38;5094495;28;20169;-73
2022/05/08 12:09:53;;;;;;;0.10;0.10;;;;;;;22.99;40.25;99990.84;5111448;28;20084;-73
2022/05/08 12:12:33;;;;;;;0.10;0.10;;;;;;;22.42;41.39;99993.31;5111475;28;20024;-73
2022/05/08 12:15:08;;;;;;;0.20;0.20;;;;;;;22.36;41.16;99997.13;5111612;28;20056;-74